sensor_id;sensor_type;location;lat;lon;timestamp;P1;durP1;ratioP1;P2;durP2;ratioP2
26484;SDS011;18083;50.560;7.262;2022-09-01T00:00:46;5.62;;;5.08;;
26484;SDS011;18083;50.560;7.262;2022-09-01T00:03:17;6.05;;;5.03;;
26484;SDS011;18083;50.560;7.262;2022-09-01T00:05:45;4.92;;;4.47;;
26484;SDS011;18083;50.560;7.262;2022-09-01T00:08:14;7.80;;;4.75;;
26484;SDS011;18083;50.560;7.262;2022-09-01T00:10:41;4.92;;;4.47;;
26484;SDS011;18083;50.560;7.262;2022-09-01T00:13:08;5.92;;;5.05;;
26484;SDS011;18083;50.560;7.262;2022-09-01T00:15:36;6.70;;;4.20;;
26484;SDS011;18083;50.560;7.262;2022-09-01T00:18:03;4.83;;;4.45;;
26484;SDS011;18083;50.560;7.262;2022-09-01T00:20:30;6.87;;;4.75;;
26484;SDS011;18083;50.560;7.262;2022-09-01T00:22:58;5.83;;;5.22;;
26484;SDS011;18083;50.560;7.262;2022-09-01T00:25:26;4.60;;;4.20;;
26484;SDS011;18083;50.560;7.262;2022-09-01T00:27:54;5.87;;;5.37;;
26484;SDS011;18083;50.560;7.262;2022-09-01T00:30:23;8.33;;;5.00;;
26484;SDS011;18083;50.560;7.262;2022-09-01T00:32:50;5.17;;;4.78;;
26484;SDS011;18083;50.560;7.262;2022-09-01T00:35:18;6.08;;;4.50;;
26484;SDS011;18083;50.560;7.262;2022-09-01T00:37:45;6.72;;;4.80;;
26484;SDS011;18083;50.560;7.262;2022-09-01T00:40:13;4.40;;;4.00;;
26484;SDS011;18083;50.560;7.262;2022-09-01T00:42:41;5.20;;;4.80;;
26484;SDS011;18083;50.560;7.262;2022-09-01T00:45:10;9.58;;;5.83;;
26484;SDS011;18083;50.560;7.262;2022-09-01T00:47:37;5.30;;;4.78;;
26484;SDS011;18083;50.560;7.262;2022-09-01T00:50:05;5.22;;;4.72;;
26484;SDS011;18083;50.560;7.262;2022-09-01T00:52:47;7.78;;;4.58;;
26484;SDS011;18083;50.560;7.262;2022-09-01T00:55:15;7.08;;;4.47;;
26484;SDS011;18083;50.560;7.262;2022-09-01T00:57:43;5.20;;;4.70;;
26484;SDS011;18083;50.560;7.262;2022-09-01T01:00:16;5.72;;;5.12;;
26484;SDS011;18083;50.560;7.262;2022-09-01T01:02:40;5.20;;;4.70;;
26484;SDS011;18083;50.560;7.262;2022-09-01T01:05:07;5.28;;;4.80;;
26484;SDS011;18083;50.560;7.262;2022-09-01T01:07:35;4.92;;;4.03;;
26484;SDS011;18083;50.560;7.262;2022-09-01T01:10:05;7.22;;;5.37;;
26484;SDS011;18083;50.560;7.262;2022-09-01T01:12:33;5.10;;;4.60;;
26484;SDS011;18083;50.560;7.262;2022-09-01T01:15:02;5.62;;;5.10;;
26484;SDS011;18083;50.560;7.262;2022-09-01T01:17:32;5.60;;;5.05;;
26484;SDS011;18083;50.560;7.262;2022-09-01T01:19:59;5.97;;;5.25;;
26484;SDS011;18083;50.560;7.262;2022-09-01T01:22:50;7.70;;;5.30;;
26484;SDS011;18083;50.560;7.262;2022-09-01T01:25:30;6.08;;;4.95;;
26484;SDS011;18083;50.560;7.262;2022-09-01T01:28:12;5.37;;;4.97;;
26484;SDS011;18083;50.560;7.262;2022-09-01T01:30:40;6.40;;;4.33;;
26484;SDS011;18083;50.560;7.262;2022-09-01T01:33:08;7.12;;;5.20;;
26484;SDS011;18083;50.560;7.262;2022-09-01T01:35:35;8.78;;;4.67;;
26484;SDS011;18083;50.560;7.262;2022-09-01T01:38:03;5.60;;;5.15;;
26484;SDS011;18083;50.560;7.262;2022-09-01T01:40:33;5.05;;;4.60;;
26484;SDS011;18083;50.560;7.262;2022-09-01T01:43:00;6.33;;;4.62;;
26484;SDS011;18083;50.560;7.262;2022-09-01T01:45:28;7.20;;;5.58;;
26484;SDS011;18083;50.560;7.262;2022-09-01T01:47:55;6.03;;;5.53;;
26484;SDS011;18083;50.560;7.262;2022-09-01T01:50:24;6.30;;;5.12;;
26484;SDS011;18083;50.560;7.262;2022-09-01T01:52:52;6.22;;;4.90;;
26484;SDS011;18083;50.560;7.262;2022-09-01T01:55:25;9.00;;;6.08;;
26484;SDS011;18083;50.560;7.262;2022-09-01T01:57:54;13.68;;;5.80;;
26484;SDS011;18083;50.560;7.262;2022-09-01T02:00:23;5.62;;;5.05;;
26484;SDS011;18083;50.560;7.262;2022-09-01T02:02:52;5.60;;;5.00;;
26484;SDS011;18083;50.560;7.262;2022-09-01T02:05:25;6.05;;;5.55;;
26484;SDS011;18083;50.560;7.262;2022-09-01T02:07:51;5.83;;;5.08;;
26484;SDS011;18083;50.560;7.262;2022-09-01T02:10:21;5.78;;;5.15;;
26484;SDS011;18083;50.560;7.262;2022-09-01T02:12:49;6.55;;;4.47;;
26484;SDS011;18083;50.560;7.262;2022-09-01T02:15:17;5.37;;;4.78;;
26484;SDS011;18083;50.560;7.262;2022-09-01T02:17:44;5.37;;;4.87;;
26484;SDS011;18083;50.560;7.262;2022-09-01T02:20:12;6.97;;;4.75;;
26484;SDS011;18083;50.560;7.262;2022-09-01T02:22:41;7.92;;;4.67;;
26484;SDS011;18083;50.560;7.262;2022-09-01T02:25:10;5.25;;;4.22;;
26484;SDS011;18083;50.560;7.262;2022-09-01T02:27:39;5.65;;;5.15;;
26484;SDS011;18083;50.560;7.262;2022-09-01T02:30:09;6.15;;;5.58;;
26484;SDS011;18083;50.560;7.262;2022-09-01T02:32:37;5.08;;;4.58;;
26484;SDS011;18083;50.560;7.262;2022-09-01T02:35:07;5.25;;;4.85;;
26484;SDS011;18083;50.560;7.262;2022-09-01T02:37:36;5.12;;;4.62;;
26484;SDS011;18083;50.560;7.262;2022-09-01T02:40:05;4.47;;;4.00;;
26484;SDS011;18083;50.560;7.262;2022-09-01T02:42:35;5.00;;;3.65;;
26484;SDS011;18083;50.560;7.262;2022-09-01T02:45:04;5.92;;;3.80;;
26484;SDS011;18083;50.560;7.262;2022-09-01T02:47:33;4.58;;;4.17;;
26484;SDS011;18083;50.560;7.262;2022-09-01T02:50:01;4.12;;;3.83;;
26484;SDS011;18083;50.560;7.262;2022-09-01T02:52:28;4.15;;;3.85;;
26484;SDS011;18083;50.560;7.262;2022-09-01T02:54:57;4.70;;;4.30;;
26484;SDS011;18083;50.560;7.262;2022-09-01T02:57:25;4.50;;;3.77;;
26484;SDS011;18083;50.560;7.262;2022-09-01T02:59:54;6.05;;;5.08;;
26484;SDS011;18083;50.560;7.262;2022-09-01T03:02:23;4.20;;;3.80;;
26484;SDS011;18083;50.560;7.262;2022-09-01T03:04:52;4.55;;;4.15;;
26484;SDS011;18083;50.560;7.262;2022-09-01T03:07:20;5.00;;;4.50;;
26484;SDS011;18083;50.560;7.262;2022-09-01T03:09:49;4.85;;;4.45;;
26484;SDS011;18083;50.560;7.262;2022-09-01T03:12:17;5.85;;;4.95;;
26484;SDS011;18083;50.560;7.262;2022-09-01T03:14:45;6.53;;;5.22;;
26484;SDS011;18083;50.560;7.262;2022-09-01T03:17:12;4.65;;;4.25;;
26484;SDS011;18083;50.560;7.262;2022-09-01T03:19:39;5.67;;;4.60;;
26484;SDS011;18083;50.560;7.262;2022-09-01T03:22:08;6.00;;;4.65;;
26484;SDS011;18083;50.560;7.262;2022-09-01T03:24:36;6.62;;;5.28;;
26484;SDS011;18083;50.560;7.262;2022-09-01T03:27:04;5.08;;;4.50;;
26484;SDS011;18083;50.560;7.262;2022-09-01T03:29:32;5.53;;;5.03;;
26484;SDS011;18083;50.560;7.262;2022-09-01T03:32:00;4.72;;;4.33;;
26484;SDS011;18083;50.560;7.262;2022-09-01T03:34:27;7.08;;;4.60;;
26484;SDS011;18083;50.560;7.262;2022-09-01T03:36:54;5.87;;;4.83;;
26484;SDS011;18083;50.560;7.262;2022-09-01T03:39:22;5.85;;;5.35;;
26484;SDS011;18083;50.560;7.262;2022-09-01T03:41:49;5.58;;;4.67;;
26484;SDS011;18083;50.560;7.262;2022-09-01T03:44:16;6.00;;;5.35;;
26484;SDS011;18083;50.560;7.262;2022-09-01T03:46:44;6.80;;;5.15;;
26484;SDS011;18083;50.560;7.262;2022-09-01T03:49:11;5.92;;;4.87;;
26484;SDS011;18083;50.560;7.262;2022-09-01T03:51:41;5.65;;;4.83;;
26484;SDS011;18083;50.560;7.262;2022-09-01T03:54:09;7.90;;;5.12;;
26484;SDS011;18083;50.560;7.262;2022-09-01T03:56:37;5.55;;;5.08;;
26484;SDS011;18083;50.560;7.262;2022-09-01T03:59:06;8.03;;;4.70;;
26484;SDS011;18083;50.560;7.262;2022-09-01T04:01:33;4.62;;;4.22;;
26484;SDS011;18083;50.560;7.262;2022-09-01T04:04:02;10.70;;;4.97;;
26484;SDS011;18083;50.560;7.262;2022-09-01T04:06:29;5.37;;;4.90;;
26484;SDS011;18083;50.560;7.262;2022-09-01T04:08:57;6.45;;;4.85;;
26484;SDS011;18083;50.560;7.262;2022-09-01T04:11:26;8.80;;;6.15;;
26484;SDS011;18083;50.560;7.262;2022-09-01T04:13:54;6.50;;;4.10;;
26484;SDS011;18083;50.560;7.262;2022-09-01T04:16:22;6.72;;;5.25;;
26484;SDS011;18083;50.560;7.262;2022-09-01T04:19:08;8.58;;;5.85;;
26484;SDS011;18083;50.560;7.262;2022-09-01T04:21:43;11.08;;;5.55;;
26484;SDS011;18083;50.560;7.262;2022-09-01T04:24:11;9.58;;;4.37;;
26484;SDS011;18083;50.560;7.262;2022-09-01T04:26:41;5.35;;;4.85;;
26484;SDS011;18083;50.560;7.262;2022-09-01T04:29:10;7.28;;;5.97;;
26484;SDS011;18083;50.560;7.262;2022-09-01T04:31:38;7.05;;;5.33;;
26484;SDS011;18083;50.560;7.262;2022-09-01T04:34:06;8.15;;;5.87;;
26484;SDS011;18083;50.560;7.262;2022-09-01T04:36:40;8.10;;;5.92;;
26484;SDS011;18083;50.560;7.262;2022-09-01T04:39:07;6.10;;;5.50;;
26484;SDS011;18083;50.560;7.262;2022-09-01T04:41:37;6.42;;;5.30;;
26484;SDS011;18083;50.560;7.262;2022-09-01T04:44:04;7.78;;;5.55;;
26484;SDS011;18083;50.560;7.262;2022-09-01T04:46:33;5.85;;;4.85;;
26484;SDS011;18083;50.560;7.262;2022-09-01T04:49:05;5.80;;;5.30;;
26484;SDS011;18083;50.560;7.262;2022-09-01T04:51:31;5.90;;;5.30;;
26484;SDS011;18083;50.560;7.262;2022-09-01T04:53:59;6.45;;;5.72;;
26484;SDS011;18083;50.560;7.262;2022-09-01T04:56:28;6.20;;;5.40;;
26484;SDS011;18083;50.560;7.262;2022-09-01T04:58:57;7.80;;;5.10;;
26484;SDS011;18083;50.560;7.262;2022-09-01T05:01:25;8.13;;;5.42;;
26484;SDS011;18083;50.560;7.262;2022-09-01T05:03:52;5.62;;;5.08;;
26484;SDS011;18083;50.560;7.262;2022-09-01T05:06:24;5.92;;;5.05;;
26484;SDS011;18083;50.560;7.262;2022-09-01T05:08:51;10.85;;;5.78;;
26484;SDS011;18083;50.560;7.262;2022-09-01T05:11:20;9.48;;;5.05;;
26484;SDS011;18083;50.560;7.262;2022-09-01T05:13:49;5.78;;;5.22;;
26484;SDS011;18083;50.560;7.262;2022-09-01T05:16:18;9.93;;;4.60;;
26484;SDS011;18083;50.560;7.262;2022-09-01T05:18:47;8.20;;;4.55;;
26484;SDS011;18083;50.560;7.262;2022-09-01T05:21:16;6.95;;;5.05;;
26484;SDS011;18083;50.560;7.262;2022-09-01T05:23:45;8.53;;;4.78;;
26484;SDS011;18083;50.560;7.262;2022-09-01T05:26:13;6.08;;;5.10;;
26484;SDS011;18083;50.560;7.262;2022-09-01T05:28:43;5.58;;;4.95;;
26484;SDS011;18083;50.560;7.262;2022-09-01T05:31:10;5.20;;;4.70;;
26484;SDS011;18083;50.560;7.262;2022-09-01T05:33:38;9.55;;;5.92;;
26484;SDS011;18083;50.560;7.262;2022-09-01T05:36:11;7.17;;;5.70;;
26484;SDS011;18083;50.560;7.262;2022-09-01T05:38:39;7.30;;;5.90;;
26484;SDS011;18083;50.560;7.262;2022-09-01T05:41:10;7.95;;;5.85;;
26484;SDS011;18083;50.560;7.262;2022-09-01T05:43:40;8.58;;;5.87;;
26484;SDS011;18083;50.560;7.262;2022-09-01T05:46:17;10.05;;;6.50;;
26484;SDS011;18083;50.560;7.262;2022-09-01T05:48:42;7.28;;;6.05;;
26484;SDS011;18083;50.560;7.262;2022-09-01T05:51:10;8.63;;;5.85;;
26484;SDS011;18083;50.560;7.262;2022-09-01T05:53:39;7.10;;;4.55;;
26484;SDS011;18083;50.560;7.262;2022-09-01T05:56:08;6.33;;;5.08;;
26484;SDS011;18083;50.560;7.262;2022-09-01T05:58:37;5.90;;;4.60;;
26484;SDS011;18083;50.560;7.262;2022-09-01T06:01:06;9.50;;;5.10;;
26484;SDS011;18083;50.560;7.262;2022-09-01T06:03:34;4.53;;;4.08;;
26484;SDS011;18083;50.560;7.262;2022-09-01T06:06:06;6.05;;;4.22;;
26484;SDS011;18083;50.560;7.262;2022-09-01T06:08:32;6.58;;;4.85;;
26484;SDS011;18083;50.560;7.262;2022-09-01T06:10:59;5.80;;;4.75;;
26484;SDS011;18083;50.560;7.262;2022-09-01T06:13:26;4.30;;;3.90;;
26484;SDS011;18083;50.560;7.262;2022-09-01T06:15:54;8.73;;;4.08;;
26484;SDS011;18083;50.560;7.262;2022-09-01T06:18:23;6.83;;;4.60;;
26484;SDS011;18083;50.560;7.262;2022-09-01T06:20:51;6.10;;;4.12;;
26484;SDS011;18083;50.560;7.262;2022-09-01T06:23:20;8.18;;;4.20;;
26484;SDS011;18083;50.560;7.262;2022-09-01T06:25:47;13.68;;;5.12;;
26484;SDS011;18083;50.560;7.262;2022-09-01T06:28:15;5.83;;;4.65;;
26484;SDS011;18083;50.560;7.262;2022-09-01T06:30:43;5.08;;;4.10;;
26484;SDS011;18083;50.560;7.262;2022-09-01T06:33:12;8.73;;;4.60;;
26484;SDS011;18083;50.560;7.262;2022-09-01T06:35:40;5.53;;;4.87;;
26484;SDS011;18083;50.560;7.262;2022-09-01T06:38:10;8.83;;;4.62;;
26484;SDS011;18083;50.560;7.262;2022-09-01T06:40:38;7.10;;;4.50;;
26484;SDS011;18083;50.560;7.262;2022-09-01T06:43:07;4.80;;;4.33;;
26484;SDS011;18083;50.560;7.262;2022-09-01T06:45:38;6.40;;;4.58;;
26484;SDS011;18083;50.560;7.262;2022-09-01T06:48:03;8.18;;;5.37;;
26484;SDS011;18083;50.560;7.262;2022-09-01T06:50:31;10.28;;;4.92;;
26484;SDS011;18083;50.560;7.262;2022-09-01T06:52:58;5.95;;;5.40;;
26484;SDS011;18083;50.560;7.262;2022-09-01T06:55:39;4.70;;;4.30;;
26484;SDS011;18083;50.560;7.262;2022-09-01T06:58:09;6.28;;;3.62;;
26484;SDS011;18083;50.560;7.262;2022-09-01T07:00:38;6.65;;;4.40;;
26484;SDS011;18083;50.560;7.262;2022-09-01T07:03:11;4.50;;;4.05;;
26484;SDS011;18083;50.560;7.262;2022-09-01T07:05:40;5.03;;;4.40;;
26484;SDS011;18083;50.560;7.262;2022-09-01T07:08:09;5.17;;;4.28;;
26484;SDS011;18083;50.560;7.262;2022-09-01T07:10:42;4.20;;;3.80;;
26484;SDS011;18083;50.560;7.262;2022-09-01T07:13:11;6.80;;;4.03;;
26484;SDS011;18083;50.560;7.262;2022-09-01T07:15:41;5.22;;;3.90;;
26484;SDS011;18083;50.560;7.262;2022-09-01T07:18:08;7.22;;;3.92;;
26484;SDS011;18083;50.560;7.262;2022-09-01T07:20:39;5.35;;;3.50;;
26484;SDS011;18083;50.560;7.262;2022-09-01T07:23:07;6.35;;;3.75;;
26484;SDS011;18083;50.560;7.262;2022-09-01T07:25:37;4.55;;;3.75;;
26484;SDS011;18083;50.560;7.262;2022-09-01T07:28:04;5.70;;;3.70;;
26484;SDS011;18083;50.560;7.262;2022-09-01T07:30:32;7.70;;;4.10;;
26484;SDS011;18083;50.560;7.262;2022-09-01T07:33:00;5.08;;;3.20;;
26484;SDS011;18083;50.560;7.262;2022-09-01T07:35:27;5.85;;;3.22;;
26484;SDS011;18083;50.560;7.262;2022-09-01T07:37:56;5.60;;;2.62;;
26484;SDS011;18083;50.560;7.262;2022-09-01T07:40:23;4.03;;;3.12;;
26484;SDS011;18083;50.560;7.262;2022-09-01T07:42:53;6.87;;;3.33;;
26484;SDS011;18083;50.560;7.262;2022-09-01T07:45:20;4.58;;;3.00;;
26484;SDS011;18083;50.560;7.262;2022-09-01T07:47:49;3.25;;;2.95;;
26484;SDS011;18083;50.560;7.262;2022-09-01T07:50:16;2.67;;;2.40;;
26484;SDS011;18083;50.560;7.262;2022-09-01T07:52:44;4.80;;;3.12;;
26484;SDS011;18083;50.560;7.262;2022-09-01T07:55:14;2.60;;;2.40;;
26484;SDS011;18083;50.560;7.262;2022-09-01T07:57:43;3.60;;;3.30;;
26484;SDS011;18083;50.560;7.262;2022-09-01T08:00:12;4.47;;;2.27;;
26484;SDS011;18083;50.560;7.262;2022-09-01T08:02:40;6.12;;;2.47;;
26484;SDS011;18083;50.560;7.262;2022-09-01T08:05:12;3.02;;;2.50;;
26484;SDS011;18083;50.560;7.262;2022-09-01T08:07:38;5.62;;;1.72;;
26484;SDS011;18083;50.560;7.262;2022-09-01T08:10:06;2.75;;;2.47;;
26484;SDS011;18083;50.560;7.262;2022-09-01T08:12:33;2.98;;;2.25;;
26484;SDS011;18083;50.560;7.262;2022-09-01T08:15:02;3.37;;;2.27;;
26484;SDS011;18083;50.560;7.262;2022-09-01T08:17:30;4.50;;;2.12;;
26484;SDS011;18083;50.560;7.262;2022-09-01T08:19:57;3.60;;;2.55;;
26484;SDS011;18083;50.560;7.262;2022-09-01T08:22:24;3.65;;;2.42;;
26484;SDS011;18083;50.560;7.262;2022-09-01T08:24:52;3.10;;;2.10;;
26484;SDS011;18083;50.560;7.262;2022-09-01T08:27:19;2.87;;;2.35;;
26484;SDS011;18083;50.560;7.262;2022-09-01T08:29:47;2.35;;;2.12;;
26484;SDS011;18083;50.560;7.262;2022-09-01T08:32:14;3.75;;;1.90;;
26484;SDS011;18083;50.560;7.262;2022-09-01T08:34:42;3.05;;;1.70;;
26484;SDS011;18083;50.560;7.262;2022-09-01T08:37:09;2.37;;;2.17;;
26484;SDS011;18083;50.560;7.262;2022-09-01T08:39:36;3.70;;;1.80;;
26484;SDS011;18083;50.560;7.262;2022-09-01T08:47:14;1.65;;;1.55;;
26484;SDS011;18083;50.560;7.262;2022-09-01T08:49:42;3.70;;;2.08;;
26484;SDS011;18083;50.560;7.262;2022-09-01T08:52:21;2.75;;;1.90;;
26484;SDS011;18083;50.560;7.262;2022-09-01T08:54:52;2.22;;;1.72;;
26484;SDS011;18083;50.560;7.262;2022-09-01T08:57:20;3.67;;;1.40;;
26484;SDS011;18083;50.560;7.262;2022-09-01T08:59:48;1.60;;;1.50;;
26484;SDS011;18083;50.560;7.262;2022-09-01T09:04:48;2.05;;;1.77;;
26484;SDS011;18083;50.560;7.262;2022-09-01T09:07:30;1.52;;;1.25;;
26484;SDS011;18083;50.560;7.262;2022-09-01T09:09:56;3.05;;;1.45;;
26484;SDS011;18083;50.560;7.262;2022-09-01T09:15:02;1.82;;;1.72;;
26484;SDS011;18083;50.560;7.262;2022-09-01T09:17:28;3.22;;;1.98;;
26484;SDS011;18083;50.560;7.262;2022-09-01T09:19:54;1.75;;;1.65;;
26484;SDS011;18083;50.560;7.262;2022-09-01T09:22:22;5.20;;;1.90;;
26484;SDS011;18083;50.560;7.262;2022-09-01T09:24:53;2.42;;;2.22;;
26484;SDS011;18083;50.560;7.262;2022-09-01T09:27:22;2.75;;;1.70;;
26484;SDS011;18083;50.560;7.262;2022-09-01T09:29:59;1.85;;;1.62;;
26484;SDS011;18083;50.560;7.262;2022-09-01T09:32:46;5.22;;;2.17;;
26484;SDS011;18083;50.560;7.262;2022-09-01T09:35:19;1.90;;;1.80;;
26484;SDS011;18083;50.560;7.262;2022-09-01T09:37:46;2.40;;;1.32;;
26484;SDS011;18083;50.560;7.262;2022-09-01T09:40:15;1.92;;;1.77;;
26484;SDS011;18083;50.560;7.262;2022-09-01T09:42:57;3.80;;;2.42;;
26484;SDS011;18083;50.560;7.262;2022-09-01T09:45:20;6.45;;;2.33;;
26484;SDS011;18083;50.560;7.262;2022-09-01T09:47:45;4.53;;;1.70;;
26484;SDS011;18083;50.560;7.262;2022-09-01T09:50:30;2.17;;;1.50;;
26484;SDS011;18083;50.560;7.262;2022-09-01T09:58:19;1.77;;;1.67;;
26484;SDS011;18083;50.560;7.262;2022-09-01T10:00:59;3.30;;;2.20;;
26484;SDS011;18083;50.560;7.262;2022-09-01T10:03:37;2.90;;;2.60;;
26484;SDS011;18083;50.560;7.262;2022-09-01T10:06:07;2.50;;;2.20;;
26484;SDS011;18083;50.560;7.262;2022-09-01T10:08:41;2.65;;;2.30;;
26484;SDS011;18083;50.560;7.262;2022-09-01T10:11:12;2.55;;;2.20;;
26484;SDS011;18083;50.560;7.262;2022-09-01T10:13:39;3.25;;;2.00;;
26484;SDS011;18083;50.560;7.262;2022-09-01T10:16:08;2.10;;;2.00;;
26484;SDS011;18083;50.560;7.262;2022-09-01T10:18:39;2.83;;;2.45;;
26484;SDS011;18083;50.560;7.262;2022-09-01T10:21:08;5.20;;;2.47;;
26484;SDS011;18083;50.560;7.262;2022-09-01T10:23:36;4.42;;;2.47;;
26484;SDS011;18083;50.560;7.262;2022-09-01T10:26:12;2.30;;;2.10;;
26484;SDS011;18083;50.560;7.262;2022-09-01T10:28:45;2.80;;;2.55;;
26484;SDS011;18083;50.560;7.262;2022-09-01T10:31:07;2.15;;;1.95;;
26484;SDS011;18083;50.560;7.262;2022-09-01T10:33:36;2.65;;;2.45;;
26484;SDS011;18083;50.560;7.262;2022-09-01T10:36:03;4.25;;;2.67;;
26484;SDS011;18083;50.560;7.262;2022-09-01T10:38:32;3.08;;;2.50;;
26484;SDS011;18083;50.560;7.262;2022-09-01T10:40:59;5.85;;;2.40;;
26484;SDS011;18083;50.560;7.262;2022-09-01T10:43:41;3.42;;;2.33;;
26484;SDS011;18083;50.560;7.262;2022-09-01T10:48:50;3.85;;;2.08;;
26484;SDS011;18083;50.560;7.262;2022-09-01T10:53:51;4.03;;;2.30;;
26484;SDS011;18083;50.560;7.262;2022-09-01T10:56:21;2.80;;;2.42;;
26484;SDS011;18083;50.560;7.262;2022-09-01T10:58:59;2.77;;;2.22;;
26484;SDS011;18083;50.560;7.262;2022-09-01T11:04:10;3.15;;;2.85;;
26484;SDS011;18083;50.560;7.262;2022-09-01T11:09:20;2.67;;;2.40;;
26484;SDS011;18083;50.560;7.262;2022-09-01T11:14:21;3.42;;;2.83;;
26484;SDS011;18083;50.560;7.262;2022-09-01T11:17:09;2.45;;;2.33;;
26484;SDS011;18083;50.560;7.262;2022-09-01T11:19:31;2.77;;;2.37;;
26484;SDS011;18083;50.560;7.262;2022-09-01T11:22:13;4.65;;;2.77;;
26484;SDS011;18083;50.560;7.262;2022-09-01T11:27:07;3.98;;;2.12;;
26484;SDS011;18083;50.560;7.262;2022-09-01T11:32:19;3.92;;;2.80;;
26484;SDS011;18083;50.560;7.262;2022-09-01T11:34:48;2.77;;;2.30;;
26484;SDS011;18083;50.560;7.262;2022-09-01T11:37:19;2.58;;;2.37;;
26484;SDS011;18083;50.560;7.262;2022-09-01T11:39:53;2.47;;;2.27;;
26484;SDS011;18083;50.560;7.262;2022-09-01T11:42:23;2.75;;;2.55;;
26484;SDS011;18083;50.560;7.262;2022-09-01T11:44:54;2.12;;;1.90;;
26484;SDS011;18083;50.560;7.262;2022-09-01T11:47:24;3.02;;;2.40;;
26484;SDS011;18083;50.560;7.262;2022-09-01T11:49:56;3.10;;;2.17;;
26484;SDS011;18083;50.560;7.262;2022-09-01T11:52:24;2.27;;;2.08;;
26484;SDS011;18083;50.560;7.262;2022-09-01T11:54:52;3.37;;;2.30;;
26484;SDS011;18083;50.560;7.262;2022-09-01T11:57:22;5.35;;;2.47;;
26484;SDS011;18083;50.560;7.262;2022-09-01T11:59:49;3.25;;;2.55;;
26484;SDS011;18083;50.560;7.262;2022-09-01T12:02:17;3.40;;;2.70;;
26484;SDS011;18083;50.560;7.262;2022-09-01T12:04:45;3.10;;;2.30;;
26484;SDS011;18083;50.560;7.262;2022-09-01T12:07:13;14.23;;;2.98;;
26484;SDS011;18083;50.560;7.262;2022-09-01T12:09:42;6.55;;;2.87;;
26484;SDS011;18083;50.560;7.262;2022-09-01T12:14:59;2.62;;;2.42;;
26484;SDS011;18083;50.560;7.262;2022-09-01T12:17:23;6.72;;;2.83;;
26484;SDS011;18083;50.560;7.262;2022-09-01T12:19:50;5.30;;;2.65;;
26484;SDS011;18083;50.560;7.262;2022-09-01T12:22:20;2.90;;;2.33;;
26484;SDS011;18083;50.560;7.262;2022-09-01T12:24:52;2.92;;;2.55;;
26484;SDS011;18083;50.560;7.262;2022-09-01T12:27:16;2.45;;;2.25;;
26484;SDS011;18083;50.560;7.262;2022-09-01T12:29:44;4.33;;;2.80;;
26484;SDS011;18083;50.560;7.262;2022-09-01T12:32:12;6.47;;;2.30;;
26484;SDS011;18083;50.560;7.262;2022-09-01T12:34:41;3.17;;;2.72;;
26484;SDS011;18083;50.560;7.262;2022-09-01T12:37:10;3.95;;;2.20;;
26484;SDS011;18083;50.560;7.262;2022-09-01T12:39:42;3.47;;;2.22;;
26484;SDS011;18083;50.560;7.262;2022-09-01T12:42:21;2.70;;;2.50;;
26484;SDS011;18083;50.560;7.262;2022-09-01T12:47:10;2.85;;;2.65;;
26484;SDS011;18083;50.560;7.262;2022-09-01T12:49:46;2.55;;;2.35;;
26484;SDS011;18083;50.560;7.262;2022-09-01T12:54:39;3.70;;;2.70;;
26484;SDS011;18083;50.560;7.262;2022-09-01T12:57:06;3.08;;;2.42;;
26484;SDS011;18083;50.560;7.262;2022-09-01T12:59:34;2.50;;;2.30;;
26484;SDS011;18083;50.560;7.262;2022-09-01T13:04:46;3.25;;;2.95;;
26484;SDS011;18083;50.560;7.262;2022-09-01T13:07:14;3.30;;;3.00;;
26484;SDS011;18083;50.560;7.262;2022-09-01T13:09:41;2.65;;;2.45;;
26484;SDS011;18083;50.560;7.262;2022-09-01T13:12:14;4.10;;;2.10;;
26484;SDS011;18083;50.560;7.262;2022-09-01T13:14:37;3.42;;;2.50;;
26484;SDS011;18083;50.560;7.262;2022-09-01T13:17:05;3.35;;;2.47;;
26484;SDS011;18083;50.560;7.262;2022-09-01T13:19:32;4.53;;;2.30;;
26484;SDS011;18083;50.560;7.262;2022-09-01T13:21:59;2.83;;;2.52;;
26484;SDS011;18083;50.560;7.262;2022-09-01T13:24:27;3.10;;;2.55;;
26484;SDS011;18083;50.560;7.262;2022-09-01T13:26:54;3.95;;;2.65;;
26484;SDS011;18083;50.560;7.262;2022-09-01T13:29:23;2.47;;;2.27;;
26484;SDS011;18083;50.560;7.262;2022-09-01T13:31:50;2.55;;;2.12;;
26484;SDS011;18083;50.560;7.262;2022-09-01T13:34:17;2.80;;;2.60;;
26484;SDS011;18083;50.560;7.262;2022-09-01T13:36:45;2.15;;;2.05;;
26484;SDS011;18083;50.560;7.262;2022-09-01T13:39:12;2.15;;;1.92;;
26484;SDS011;18083;50.560;7.262;2022-09-01T13:41:40;2.65;;;2.45;;
26484;SDS011;18083;50.560;7.262;2022-09-01T13:44:07;2.58;;;2.37;;
26484;SDS011;18083;50.560;7.262;2022-09-01T13:46:35;3.50;;;2.67;;
26484;SDS011;18083;50.560;7.262;2022-09-01T13:49:03;4.05;;;1.92;;
26484;SDS011;18083;50.560;7.262;2022-09-01T13:51:30;2.00;;;1.85;;
26484;SDS011;18083;50.560;7.262;2022-09-01T13:53:58;2.30;;;1.45;;
26484;SDS011;18083;50.560;7.262;2022-09-01T13:56:25;4.10;;;2.50;;
26484;SDS011;18083;50.560;7.262;2022-09-01T13:58:52;2.35;;;2.15;;
26484;SDS011;18083;50.560;7.262;2022-09-01T14:01:20;2.15;;;1.92;;
26484;SDS011;18083;50.560;7.262;2022-09-01T14:03:48;2.45;;;2.25;;
26484;SDS011;18083;50.560;7.262;2022-09-01T14:06:15;2.25;;;2.05;;
26484;SDS011;18083;50.560;7.262;2022-09-01T14:08:43;7.47;;;2.62;;
26484;SDS011;18083;50.560;7.262;2022-09-01T14:11:14;4.12;;;2.20;;
26484;SDS011;18083;50.560;7.262;2022-09-01T14:13:40;2.72;;;2.52;;
26484;SDS011;18083;50.560;7.262;2022-09-01T14:16:11;2.50;;;2.30;;
26484;SDS011;18083;50.560;7.262;2022-09-01T14:18:38;3.65;;;2.05;;
26484;SDS011;18083;50.560;7.262;2022-09-01T14:21:09;2.02;;;1.90;;
26484;SDS011;18083;50.560;7.262;2022-09-01T14:23:34;2.58;;;2.33;;
26484;SDS011;18083;50.560;7.262;2022-09-01T14:26:06;1.95;;;1.52;;
26484;SDS011;18083;50.560;7.262;2022-09-01T14:28:30;2.87;;;2.10;;
26484;SDS011;18083;50.560;7.262;2022-09-01T14:30:58;2.37;;;2.17;;
26484;SDS011;18083;50.560;7.262;2022-09-01T14:33:27;2.52;;;1.80;;
26484;SDS011;18083;50.560;7.262;2022-09-01T14:35:54;1.85;;;1.75;;
26484;SDS011;18083;50.560;7.262;2022-09-01T14:38:21;2.50;;;1.90;;
26484;SDS011;18083;50.560;7.262;2022-09-01T14:40:49;2.83;;;2.58;;
26484;SDS011;18083;50.560;7.262;2022-09-01T14:43:17;1.67;;;1.57;;
26484;SDS011;18083;50.560;7.262;2022-09-01T14:45:45;1.80;;;1.67;;
26484;SDS011;18083;50.560;7.262;2022-09-01T14:48:14;1.77;;;1.67;;
26484;SDS011;18083;50.560;7.262;2022-09-01T14:50:42;1.62;;;1.47;;
26484;SDS011;18083;50.560;7.262;2022-09-01T14:53:10;2.10;;;1.77;;
26484;SDS011;18083;50.560;7.262;2022-09-01T14:55:38;4.37;;;2.02;;
26484;SDS011;18083;50.560;7.262;2022-09-01T14:58:05;2.02;;;1.80;;
26484;SDS011;18083;50.560;7.262;2022-09-01T15:00:33;2.62;;;1.87;;
26484;SDS011;18083;50.560;7.262;2022-09-01T15:03:04;4.33;;;2.85;;
26484;SDS011;18083;50.560;7.262;2022-09-01T15:05:31;2.17;;;1.98;;
26484;SDS011;18083;50.560;7.262;2022-09-01T15:07:59;1.90;;;1.80;;
26484;SDS011;18083;50.560;7.262;2022-09-01T15:10:26;1.90;;;1.80;;
26484;SDS011;18083;50.560;7.262;2022-09-01T15:12:55;1.95;;;1.55;;
26484;SDS011;18083;50.560;7.262;2022-09-01T15:15:22;3.37;;;1.60;;
26484;SDS011;18083;50.560;7.262;2022-09-01T15:17:50;2.00;;;1.90;;
26484;SDS011;18083;50.560;7.262;2022-09-01T15:20:18;4.60;;;1.98;;
26484;SDS011;18083;50.560;7.262;2022-09-01T15:23:03;1.47;;;1.37;;
26484;SDS011;18083;50.560;7.262;2022-09-01T15:25:31;1.75;;;1.65;;
26484;SDS011;18083;50.560;7.262;2022-09-01T15:27:59;1.62;;;1.52;;
26484;SDS011;18083;50.560;7.262;2022-09-01T15:30:26;2.12;;;2.02;;
26484;SDS011;18083;50.560;7.262;2022-09-01T15:32:53;2.10;;;1.77;;
26484;SDS011;18083;50.560;7.262;2022-09-01T15:35:21;1.60;;;1.47;;
26484;SDS011;18083;50.560;7.262;2022-09-01T15:37:49;2.50;;;1.80;;
26484;SDS011;18083;50.560;7.262;2022-09-01T15:40:17;7.40;;;1.70;;
26484;SDS011;18083;50.560;7.262;2022-09-01T15:42:45;2.75;;;1.70;;